sensor_id;sensor_type;location;lat;lon;timestamp;P1;durP1;ratioP1;P2;durP2;ratioP2
46941;SDS011;32676;52.630;4.896;2022-09-09T00:00:17;7.93;;;2.70;;
46941;SDS011;32676;52.630;4.896;2022-09-09T00:02:46;9.88;;;2.17;;
46941;SDS011;32676;52.630;4.896;2022-09-09T00:05:23;7.63;;;2.47;;
46941;SDS011;32676;52.630;4.896;2022-09-09T00:10:27;10.88;;;2.30;;
46941;SDS011;32676;52.630;4.896;2022-09-09T00:12:57;10.48;;;2.53;;
46941;SDS011;32676;52.630;4.896;2022-09-09T00:15:32;8.18;;;3.65;;
46941;SDS011;32676;52.630;4.896;2022-09-09T00:18:07;6.38;;;2.80;;
46941;SDS011;32676;52.630;4.896;2022-09-09T00:20:43;9.43;;;3.13;;
46941;SDS011;32676;52.630;4.896;2022-09-09T00:23:17;8.93;;;3.40;;
46941;SDS011;32676;52.630;4.896;2022-09-09T00:25:51;10.45;;;2.97;;
46941;SDS011;32676;52.630;4.896;2022-09-09T00:28:24;8.05;;;3.10;;
46941;SDS011;32676;52.630;4.896;2022-09-09T00:31:00;10.50;;;2.85;;
46941;SDS011;32676;52.630;4.896;2022-09-09T00:33:35;4.70;;;2.85;;
46941;SDS011;32676;52.630;4.896;2022-09-09T00:36:07;5.93;;;3.20;;
46941;SDS011;32676;52.630;4.896;2022-09-09T00:38:39;9.75;;;3.63;;
46941;SDS011;32676;52.630;4.896;2022-09-09T00:41:11;9.50;;;2.88;;
46941;SDS011;32676;52.630;4.896;2022-09-09T00:43:46;13.23;;;3.33;;
46941;SDS011;32676;52.630;4.896;2022-09-09T00:46:29;20.95;;;4.93;;
46941;SDS011;32676;52.630;4.896;2022-09-09T00:49:24;7.88;;;2.72;;
46941;SDS011;32676;52.630;4.896;2022-09-09T00:52:03;6.90;;;3.08;;
46941;SDS011;32676;52.630;4.896;2022-09-09T00:54:45;9.30;;;3.05;;
46941;SDS011;32676;52.630;4.896;2022-09-09T00:57:22;10.30;;;2.70;;
46941;SDS011;32676;52.630;4.896;2022-09-09T00:59:55;6.90;;;3.08;;
46941;SDS011;32676;52.630;4.896;2022-09-09T01:02:27;9.18;;;3.42;;
46941;SDS011;32676;52.630;4.896;2022-09-09T01:04:57;8.95;;;2.85;;
46941;SDS011;32676;52.630;4.896;2022-09-09T01:07:32;7.40;;;2.22;;
46941;SDS011;32676;52.630;4.896;2022-09-09T01:09:59;6.55;;;2.65;;
46941;SDS011;32676;52.630;4.896;2022-09-09T01:12:34;9.50;;;2.80;;
46941;SDS011;32676;52.630;4.896;2022-09-09T01:15:10;7.68;;;2.75;;
46941;SDS011;32676;52.630;4.896;2022-09-09T01:17:44;10.27;;;3.03;;
46941;SDS011;32676;52.630;4.896;2022-09-09T01:20:17;6.10;;;2.75;;
46941;SDS011;32676;52.630;4.896;2022-09-09T01:22:53;7.57;;;2.25;;
46941;SDS011;32676;52.630;4.896;2022-09-09T01:25:29;10.57;;;2.65;;
46941;SDS011;32676;52.630;4.896;2022-09-09T01:28:17;8.35;;;2.88;;
46941;SDS011;32676;52.630;4.896;2022-09-09T01:30:48;7.07;;;3.08;;
46941;SDS011;32676;52.630;4.896;2022-09-09T01:33:16;5.68;;;2.55;;
46941;SDS011;32676;52.630;4.896;2022-09-09T01:35:45;7.38;;;3.20;;
46941;SDS011;32676;52.630;4.896;2022-09-09T01:38:16;6.50;;;2.90;;
46941;SDS011;32676;52.630;4.896;2022-09-09T01:40:44;12.43;;;3.60;;
46941;SDS011;32676;52.630;4.896;2022-09-09T01:43:11;9.93;;;3.20;;
46941;SDS011;32676;52.630;4.896;2022-09-09T01:45:38;8.13;;;2.60;;
46941;SDS011;32676;52.630;4.896;2022-09-09T01:48:07;11.02;;;2.97;;
46941;SDS011;32676;52.630;4.896;2022-09-09T01:50:33;9.05;;;4.20;;
46941;SDS011;32676;52.630;4.896;2022-09-09T01:53:00;9.05;;;4.10;;
46941;SDS011;32676;52.630;4.896;2022-09-09T01:55:29;10.85;;;4.90;;
46941;SDS011;32676;52.630;4.896;2022-09-09T01:58:01;7.60;;;3.38;;
46941;SDS011;32676;52.630;4.896;2022-09-09T02:00:42;10.55;;;4.45;;
46941;SDS011;32676;52.630;4.896;2022-09-09T02:03:16;10.70;;;4.63;;
46941;SDS011;32676;52.630;4.896;2022-09-09T02:08:22;13.13;;;5.32;;
46941;SDS011;32676;52.630;4.896;2022-09-09T02:10:53;14.65;;;5.97;;
46941;SDS011;32676;52.630;4.896;2022-09-09T02:13:23;13.20;;;5.00;;
46941;SDS011;32676;52.630;4.896;2022-09-09T02:15:53;15.13;;;5.88;;
46941;SDS011;32676;52.630;4.896;2022-09-09T02:18:26;13.30;;;5.95;;
46941;SDS011;32676;52.630;4.896;2022-09-09T02:20:56;14.13;;;6.13;;
46941;SDS011;32676;52.630;4.896;2022-09-09T02:23:25;19.85;;;6.22;;
46941;SDS011;32676;52.630;4.896;2022-09-09T02:25:53;14.85;;;8.13;;
46941;SDS011;32676;52.630;4.896;2022-09-09T02:28:21;15.77;;;7.75;;
46941;SDS011;32676;52.630;4.896;2022-09-09T02:30:52;15.77;;;7.65;;
46941;SDS011;32676;52.630;4.896;2022-09-09T02:33:20;13.05;;;7.57;;
46941;SDS011;32676;52.630;4.896;2022-09-09T02:35:50;13.85;;;6.90;;
46941;SDS011;32676;52.630;4.896;2022-09-09T02:38:18;17.25;;;7.82;;
46941;SDS011;32676;52.630;4.896;2022-09-09T02:40:47;14.00;;;7.43;;
46941;SDS011;32676;52.630;4.896;2022-09-09T02:43:13;12.63;;;6.57;;
46941;SDS011;32676;52.630;4.896;2022-09-09T02:45:42;13.38;;;7.57;;
46941;SDS011;32676;52.630;4.896;2022-09-09T02:50:52;19.23;;;7.07;;
46941;SDS011;32676;52.630;4.896;2022-09-09T02:53:24;17.60;;;7.35;;
46941;SDS011;32676;52.630;4.896;2022-09-09T02:55:58;18.33;;;7.93;;
46941;SDS011;32676;52.630;4.896;2022-09-09T02:58:28;16.40;;;8.70;;
46941;SDS011;32676;52.630;4.896;2022-09-09T03:00:55;16.65;;;7.00;;
46941;SDS011;32676;52.630;4.896;2022-09-09T03:03:24;12.90;;;7.57;;
46941;SDS011;32676;52.630;4.896;2022-09-09T03:05:52;14.38;;;8.95;;
46941;SDS011;32676;52.630;4.896;2022-09-09T03:08:18;18.92;;;8.43;;
46941;SDS011;32676;52.630;4.896;2022-09-09T03:10:45;21.17;;;8.07;;
46941;SDS011;32676;52.630;4.896;2022-09-09T03:13:11;16.55;;;8.80;;
46941;SDS011;32676;52.630;4.896;2022-09-09T03:15:40;21.73;;;9.63;;
46941;SDS011;32676;52.630;4.896;2022-09-09T03:18:07;20.98;;;8.50;;
46941;SDS011;32676;52.630;4.896;2022-09-09T03:20:35;14.43;;;8.32;;
46941;SDS011;32676;52.630;4.896;2022-09-09T03:23:01;14.82;;;8.55;;
46941;SDS011;32676;52.630;4.896;2022-09-09T03:25:28;13.32;;;8.07;;
46941;SDS011;32676;52.630;4.896;2022-09-09T03:27:55;12.80;;;8.15;;
46941;SDS011;32676;52.630;4.896;2022-09-09T03:30:21;12.90;;;8.65;;
46941;SDS011;32676;52.630;4.896;2022-09-09T03:32:49;11.60;;;7.65;;
46941;SDS011;32676;52.630;4.896;2022-09-09T03:35:15;11.90;;;7.88;;
46941;SDS011;32676;52.630;4.896;2022-09-09T03:37:43;14.75;;;8.15;;
46941;SDS011;32676;52.630;4.896;2022-09-09T03:40:10;14.60;;;8.18;;
46941;SDS011;32676;52.630;4.896;2022-09-09T03:42:37;14.55;;;7.18;;
46941;SDS011;32676;52.630;4.896;2022-09-09T03:45:05;18.25;;;9.32;;
46941;SDS011;32676;52.630;4.896;2022-09-09T03:47:34;11.57;;;8.00;;
46941;SDS011;32676;52.630;4.896;2022-09-09T03:50:00;16.42;;;7.40;;
46941;SDS011;32676;52.630;4.896;2022-09-09T03:52:27;16.85;;;8.63;;
46941;SDS011;32676;52.630;4.896;2022-09-09T03:54:55;14.60;;;8.18;;
46941;SDS011;32676;52.630;4.896;2022-09-09T03:57:22;18.33;;;8.00;;
46941;SDS011;32676;52.630;4.896;2022-09-09T03:59:48;17.70;;;7.68;;
46941;SDS011;32676;52.630;4.896;2022-09-09T04:02:15;15.50;;;8.40;;
46941;SDS011;32676;52.630;4.896;2022-09-09T04:04:41;13.13;;;8.45;;
46941;SDS011;32676;52.630;4.896;2022-09-09T04:07:08;15.85;;;7.40;;
46941;SDS011;32676;52.630;4.896;2022-09-09T04:09:34;18.95;;;8.48;;
46941;SDS011;32676;52.630;4.896;2022-09-09T04:12:02;25.10;;;9.35;;
46941;SDS011;32676;52.630;4.896;2022-09-09T04:14:29;13.80;;;8.52;;
46941;SDS011;32676;52.630;4.896;2022-09-09T04:16:55;21.67;;;10.10;;
46941;SDS011;32676;52.630;4.896;2022-09-09T04:19:22;13.40;;;7.82;;
46941;SDS011;32676;52.630;4.896;2022-09-09T04:21:48;15.57;;;7.55;;
46941;SDS011;32676;52.630;4.896;2022-09-09T04:24:16;23.98;;;8.68;;
46941;SDS011;32676;52.630;4.896;2022-09-09T04:26:43;14.68;;;8.40;;
46941;SDS011;32676;52.630;4.896;2022-09-09T04:29:11;11.07;;;7.10;;
46941;SDS011;32676;52.630;4.896;2022-09-09T04:31:38;12.40;;;6.45;;
46941;SDS011;32676;52.630;4.896;2022-09-09T04:34:06;16.90;;;6.93;;
46941;SDS011;32676;52.630;4.896;2022-09-09T04:36:33;10.35;;;6.32;;
46941;SDS011;32676;52.630;4.896;2022-09-09T04:39:00;15.25;;;6.97;;
46941;SDS011;32676;52.630;4.896;2022-09-09T04:41:26;12.60;;;7.63;;
46941;SDS011;32676;52.630;4.896;2022-09-09T04:43:53;15.70;;;7.63;;
46941;SDS011;32676;52.630;4.896;2022-09-09T04:46:23;18.02;;;7.60;;
46941;SDS011;32676;52.630;4.896;2022-09-09T04:48:50;13.25;;;7.50;;
46941;SDS011;32676;52.630;4.896;2022-09-09T04:51:18;13.05;;;6.78;;
46941;SDS011;32676;52.630;4.896;2022-09-09T04:53:45;13.93;;;6.47;;
46941;SDS011;32676;52.630;4.896;2022-09-09T04:56:13;17.15;;;7.05;;
46941;SDS011;32676;52.630;4.896;2022-09-09T04:58:41;16.40;;;7.68;;
46941;SDS011;32676;52.630;4.896;2022-09-09T05:01:09;13.88;;;7.28;;
46941;SDS011;32676;52.630;4.896;2022-09-09T05:03:38;12.52;;;6.38;;
46941;SDS011;32676;52.630;4.896;2022-09-09T05:06:05;14.18;;;6.57;;
46941;SDS011;32676;52.630;4.896;2022-09-09T05:08:33;13.43;;;7.18;;
46941;SDS011;32676;52.630;4.896;2022-09-09T05:11:00;13.70;;;6.55;;
46941;SDS011;32676;52.630;4.896;2022-09-09T05:13:26;14.02;;;7.18;;
46941;SDS011;32676;52.630;4.896;2022-09-09T05:15:53;12.65;;;5.95;;
46941;SDS011;32676;52.630;4.896;2022-09-09T05:18:20;10.07;;;6.60;;
46941;SDS011;32676;52.630;4.896;2022-09-09T05:20:49;20.67;;;6.30;;
46941;SDS011;32676;52.630;4.896;2022-09-09T05:23:15;13.90;;;6.22;;
46941;SDS011;32676;52.630;4.896;2022-09-09T05:25:42;16.20;;;7.45;;
46941;SDS011;32676;52.630;4.896;2022-09-09T05:28:10;12.48;;;5.78;;
46941;SDS011;32676;52.630;4.896;2022-09-09T05:30:37;10.55;;;6.28;;
46941;SDS011;32676;52.630;4.896;2022-09-09T05:33:03;11.23;;;5.88;;
46941;SDS011;32676;52.630;4.896;2022-09-09T05:35:31;13.30;;;5.60;;
46941;SDS011;32676;52.630;4.896;2022-09-09T05:38:00;19.10;;;5.25;;
46941;SDS011;32676;52.630;4.896;2022-09-09T05:40:26;10.57;;;4.63;;
46941;SDS011;32676;52.630;4.896;2022-09-09T05:42:53;10.98;;;4.65;;
46941;SDS011;32676;52.630;4.896;2022-09-09T05:45:19;11.35;;;4.63;;
46941;SDS011;32676;52.630;4.896;2022-09-09T05:47:50;7.55;;;3.75;;
46941;SDS011;32676;52.630;4.896;2022-09-09T05:50:18;8.45;;;4.55;;
46941;SDS011;32676;52.630;4.896;2022-09-09T05:52:45;12.18;;;5.50;;
46941;SDS011;32676;52.630;4.896;2022-09-09T05:55:14;9.73;;;3.67;;
46941;SDS011;32676;52.630;4.896;2022-09-09T05:57:40;8.73;;;3.70;;
46941;SDS011;32676;52.630;4.896;2022-09-09T06:00:07;8.13;;;3.45;;
46941;SDS011;32676;52.630;4.896;2022-09-09T06:02:35;7.53;;;4.03;;
46941;SDS011;32676;52.630;4.896;2022-09-09T06:05:04;7.13;;;4.88;;
46941;SDS011;32676;52.630;4.896;2022-09-09T06:07:31;8.80;;;3.13;;
46941;SDS011;32676;52.630;4.896;2022-09-09T06:09:57;8.15;;;3.42;;
46941;SDS011;32676;52.630;4.896;2022-09-09T06:12:25;9.70;;;3.22;;
46941;SDS011;32676;52.630;4.896;2022-09-09T06:14:52;9.93;;;3.33;;
46941;SDS011;32676;52.630;4.896;2022-09-09T06:17:18;12.07;;;3.90;;
46941;SDS011;32676;52.630;4.896;2022-09-09T06:19:45;10.65;;;3.30;;
46941;SDS011;32676;52.630;4.896;2022-09-09T06:22:11;7.63;;;3.63;;
46941;SDS011;32676;52.630;4.896;2022-09-09T06:24:38;11.82;;;2.60;;
46941;SDS011;32676;52.630;4.896;2022-09-09T06:27:04;9.95;;;2.67;;
46941;SDS011;32676;52.630;4.896;2022-09-09T06:29:33;6.15;;;2.20;;
46941;SDS011;32676;52.630;4.896;2022-09-09T06:31:59;7.07;;;2.40;;
46941;SDS011;32676;52.630;4.896;2022-09-09T06:34:26;10.60;;;3.05;;
46941;SDS011;32676;52.630;4.896;2022-09-09T06:36:53;8.55;;;2.50;;
46941;SDS011;32676;52.630;4.896;2022-09-09T06:39:24;6.22;;;2.20;;
46941;SDS011;32676;52.630;4.896;2022-09-09T06:41:50;8.52;;;2.10;;
46941;SDS011;32676;52.630;4.896;2022-09-09T06:44:18;3.50;;;1.65;;
46941;SDS011;32676;52.630;4.896;2022-09-09T06:46:46;7.25;;;2.72;;
46941;SDS011;32676;52.630;4.896;2022-09-09T06:49:13;7.47;;;2.53;;
46941;SDS011;32676;52.630;4.896;2022-09-09T06:51:40;20.52;;;5.10;;
46941;SDS011;32676;52.630;4.896;2022-09-09T06:54:08;9.50;;;2.25;;
46941;SDS011;32676;52.630;4.896;2022-09-09T06:56:35;10.18;;;2.72;;
46941;SDS011;32676;52.630;4.896;2022-09-09T06:59:04;21.45;;;2.67;;
46941;SDS011;32676;52.630;4.896;2022-09-09T07:01:33;8.93;;;2.05;;
46941;SDS011;32676;52.630;4.896;2022-09-09T07:04:03;16.90;;;3.85;;
46941;SDS011;32676;52.630;4.896;2022-09-09T07:06:33;5.80;;;1.80;;
46941;SDS011;32676;52.630;4.896;2022-09-09T07:09:02;5.10;;;1.73;;
46941;SDS011;32676;52.630;4.896;2022-09-09T07:11:30;9.90;;;2.50;;
46941;SDS011;32676;52.630;4.896;2022-09-09T07:13:59;7.38;;;2.90;;
46941;SDS011;32676;52.630;4.896;2022-09-09T07:16:26;8.13;;;1.60;;
46941;SDS011;32676;52.630;4.896;2022-09-09T07:18:54;14.43;;;2.72;;
46941;SDS011;32676;52.630;4.896;2022-09-09T07:21:24;4.55;;;1.77;;
46941;SDS011;32676;52.630;4.896;2022-09-09T07:23:51;8.07;;;2.03;;
46941;SDS011;32676;52.630;4.896;2022-09-09T07:26:19;9.45;;;2.42;;
46941;SDS011;32676;52.630;4.896;2022-09-09T07:28:46;9.80;;;1.90;;
46941;SDS011;32676;52.630;4.896;2022-09-09T07:31:14;9.80;;;1.77;;
46941;SDS011;32676;52.630;4.896;2022-09-09T07:33:42;11.35;;;2.13;;
46941;SDS011;32676;52.630;4.896;2022-09-09T07:36:10;8.65;;;2.17;;
46941;SDS011;32676;52.630;4.896;2022-09-09T07:38:41;10.60;;;2.53;;
46941;SDS011;32676;52.630;4.896;2022-09-09T07:41:11;12.18;;;3.67;;
46941;SDS011;32676;52.630;4.896;2022-09-09T07:43:39;7.07;;;2.53;;
46941;SDS011;32676;52.630;4.896;2022-09-09T07:46:06;12.30;;;2.85;;
46941;SDS011;32676;52.630;4.896;2022-09-09T07:48:34;9.45;;;2.80;;
46941;SDS011;32676;52.630;4.896;2022-09-09T07:51:08;9.77;;;3.72;;
46941;SDS011;32676;52.630;4.896;2022-09-09T07:53:36;9.35;;;3.65;;
46941;SDS011;32676;52.630;4.896;2022-09-09T07:56:06;17.67;;;4.82;;
46941;SDS011;32676;52.630;4.896;2022-09-09T07:58:34;11.32;;;3.88;;
46941;SDS011;32676;52.630;4.896;2022-09-09T08:01:05;14.38;;;4.10;;
46941;SDS011;32676;52.630;4.896;2022-09-09T08:03:33;16.15;;;3.70;;
46941;SDS011;32676;52.630;4.896;2022-09-09T08:06:00;11.07;;;4.00;;
46941;SDS011;32676;52.630;4.896;2022-09-09T08:08:28;12.02;;;3.95;;
46941;SDS011;32676;52.630;4.896;2022-09-09T08:11:00;8.25;;;3.55;;
46941;SDS011;32676;52.630;4.896;2022-09-09T08:13:30;12.17;;;3.83;;
46941;SDS011;32676;52.630;4.896;2022-09-09T08:16:03;15.60;;;3.15;;
46941;SDS011;32676;52.630;4.896;2022-09-09T08:20:58;11.30;;;3.35;;
46941;SDS011;32676;52.630;4.896;2022-09-09T08:23:30;8.27;;;2.88;;
46941;SDS011;32676;52.630;4.896;2022-09-09T08:26:02;10.10;;;3.20;;
46941;SDS011;32676;52.630;4.896;2022-09-09T08:28:31;9.23;;;2.50;;
46941;SDS011;32676;52.630;4.896;2022-09-09T08:31:04;17.23;;;3.53;;
46941;SDS011;32676;52.630;4.896;2022-09-09T08:33:31;12.40;;;3.15;;
46941;SDS011;32676;52.630;4.896;2022-09-09T08:35:59;12.05;;;2.63;;
46941;SDS011;32676;52.630;4.896;2022-09-09T08:38:25;12.45;;;2.60;;
46941;SDS011;32676;52.630;4.896;2022-09-09T08:40:53;11.52;;;2.38;;
46941;SDS011;32676;52.630;4.896;2022-09-09T08:43:31;8.40;;;2.20;;
46941;SDS011;32676;52.630;4.896;2022-09-09T08:46:00;10.38;;;2.65;;
46941;SDS011;32676;52.630;4.896;2022-09-09T08:48:44;7.68;;;2.30;;
46941;SDS011;32676;52.630;4.896;2022-09-09T08:51:18;18.33;;;3.15;;
46941;SDS011;32676;52.630;4.896;2022-09-09T08:53:46;15.45;;;2.40;;
46941;SDS011;32676;52.630;4.896;2022-09-09T08:56:16;3.53;;;1.42;;
46941;SDS011;32676;52.630;4.896;2022-09-09T08:58:49;9.07;;;2.85;;
46941;SDS011;32676;52.630;4.896;2022-09-09T09:01:22;8.52;;;2.28;;
46941;SDS011;32676;52.630;4.896;2022-09-09T09:04:03;9.45;;;1.90;;
46941;SDS011;32676;52.630;4.896;2022-09-09T09:06:42;9.77;;;2.33;;
46941;SDS011;32676;52.630;4.896;2022-09-09T09:09:18;8.13;;;2.13;;
46941;SDS011;32676;52.630;4.896;2022-09-09T09:11:51;8.77;;;2.13;;
46941;SDS011;32676;52.630;4.896;2022-09-09T09:14:22;15.25;;;1.98;;
46941;SDS011;32676;52.630;4.896;2022-09-09T09:16:50;12.70;;;2.38;;
46941;SDS011;32676;52.630;4.896;2022-09-09T09:19:20;8.43;;;2.17;;
46941;SDS011;32676;52.630;4.896;2022-09-09T09:21:48;19.55;;;3.78;;
46941;SDS011;32676;52.630;4.896;2022-09-09T09:24:20;8.82;;;2.13;;
46941;SDS011;32676;52.630;4.896;2022-09-09T09:26:53;10.82;;;2.60;;
46941;SDS011;32676;52.630;4.896;2022-09-09T09:29:23;10.65;;;2.42;;
46941;SDS011;32676;52.630;4.896;2022-09-09T09:31:52;15.02;;;4.57;;
46941;SDS011;32676;52.630;4.896;2022-09-09T09:34:22;10.57;;;3.15;;
46941;SDS011;32676;52.630;4.896;2022-09-09T09:36:52;11.35;;;2.47;;
46941;SDS011;32676;52.630;4.896;2022-09-09T09:39:23;17.55;;;2.30;;
46941;SDS011;32676;52.630;4.896;2022-09-09T09:41:51;9.25;;;1.92;;
46941;SDS011;32676;52.630;4.896;2022-09-09T09:44:27;11.10;;;3.97;;
46941;SDS011;32676;52.630;4.896;2022-09-09T09:47:05;5.93;;;1.98;;
46941;SDS011;32676;52.630;4.896;2022-09-09T09:49:32;10.02;;;2.95;;
46941;SDS011;32676;52.630;4.896;2022-09-09T09:52:00;10.55;;;2.50;;
46941;SDS011;32676;52.630;4.896;2022-09-09T09:54:27;13.27;;;2.10;;
46941;SDS011;32676;52.630;4.896;2022-09-09T09:56:55;6.78;;;2.13;;
46941;SDS011;32676;52.630;4.896;2022-09-09T09:59:35;10.02;;;2.50;;
46941;SDS011;32676;52.630;4.896;2022-09-09T10:02:15;9.07;;;1.90;;
46941;SDS011;32676;52.630;4.896;2022-09-09T10:04:43;12.73;;;3.47;;
46941;SDS011;32676;52.630;4.896;2022-09-09T10:07:11;9.40;;;2.25;;
46941;SDS011;32676;52.630;4.896;2022-09-09T10:09:47;13.23;;;3.90;;
46941;SDS011;32676;52.630;4.896;2022-09-09T10:12:20;13.55;;;3.50;;
46941;SDS011;32676;52.630;4.896;2022-09-09T10:15:01;7.95;;;2.53;;
46941;SDS011;32676;52.630;4.896;2022-09-09T10:17:33;11.68;;;2.25;;
46941;SDS011;32676;52.630;4.896;2022-09-09T10:20:21;8.68;;;2.55;;
46941;SDS011;32676;52.630;4.896;2022-09-09T10:23:02;7.90;;;2.00;;
46941;SDS011;32676;52.630;4.896;2022-09-09T10:25:44;11.57;;;2.70;;
46941;SDS011;32676;52.630;4.896;2022-09-09T10:28:29;5.10;;;1.70;;
46941;SDS011;32676;52.630;4.896;2022-09-09T10:31:11;7.97;;;2.00;;
46941;SDS011;32676;52.630;4.896;2022-09-09T10:33:46;10.32;;;2.85;;
46941;SDS011;32676;52.630;4.896;2022-09-09T10:36:18;10.48;;;1.67;;
46941;SDS011;32676;52.630;4.896;2022-09-09T10:38:47;11.30;;;2.88;;
46941;SDS011;32676;52.630;4.896;2022-09-09T10:41:19;11.10;;;1.85;;
46941;SDS011;32676;52.630;4.896;2022-09-09T10:43:56;7.63;;;1.80;;
46941;SDS011;32676;52.630;4.896;2022-09-09T10:46:43;16.73;;;2.85;;
46941;SDS011;32676;52.630;4.896;2022-09-09T10:49:20;8.20;;;1.48;;
46941;SDS011;32676;52.630;4.896;2022-09-09T10:55:12;9.30;;;2.10;;
46941;SDS011;32676;52.630;4.896;2022-09-09T10:57:43;7.95;;;1.50;;
46941;SDS011;32676;52.630;4.896;2022-09-09T11:00:15;6.88;;;1.63;;
46941;SDS011;32676;52.630;4.896;2022-09-09T11:02:45;6.45;;;1.42;;
46941;SDS011;32676;52.630;4.896;2022-09-09T11:05:18;5.28;;;1.30;;
46941;SDS011;32676;52.630;4.896;2022-09-09T11:07:54;7.10;;;1.75;;
46941;SDS011;32676;52.630;4.896;2022-09-09T11:10:26;7.65;;;1.88;;
46941;SDS011;32676;52.630;4.896;2022-09-09T11:13:02;12.68;;;1.73;;
46941;SDS011;32676;52.630;4.896;2022-09-09T11:15:35;6.82;;;1.20;;
46941;SDS011;32676;52.630;4.896;2022-09-09T11:18:09;6.78;;;1.23;;
46941;SDS011;32676;52.630;4.896;2022-09-09T11:20:42;10.30;;;2.75;;
46941;SDS011;32676;52.630;4.896;2022-09-09T11:23:11;3.47;;;1.13;;
46941;SDS011;32676;52.630;4.896;2022-09-09T11:25:43;7.88;;;1.30;;
46941;SDS011;32676;52.630;4.896;2022-09-09T11:28:25;8.55;;;1.02;;
46941;SDS011;32676;52.630;4.896;2022-09-09T11:31:08;17.75;;;2.33;;
46941;SDS011;32676;52.630;4.896;2022-09-09T11:33:51;7.60;;;1.30;;
46941;SDS011;32676;52.630;4.896;2022-09-09T11:36:35;8.75;;;2.78;;
46941;SDS011;32676;52.630;4.896;2022-09-09T11:39:35;7.85;;;1.20;;
46941;SDS011;32676;52.630;4.896;2022-09-09T11:42:15;9.65;;;1.15;;
46941;SDS011;32676;52.630;4.896;2022-09-09T11:44:49;11.40;;;1.10;;
46941;SDS011;32676;52.630;4.896;2022-09-09T11:47:19;7.40;;;1.83;;
46941;SDS011;32676;52.630;4.896;2022-09-09T11:49:53;6.25;;;1.42;;
46941;SDS011;32676;52.630;4.896;2022-09-09T11:52:23;4.18;;;0.80;;
46941;SDS011;32676;52.630;4.896;2022-09-09T11:54:54;6.57;;;1.15;;
46941;SDS011;32676;52.630;4.896;2022-09-09T11:57:25;9.55;;;1.00;;
46941;SDS011;32676;52.630;4.896;2022-09-09T11:59:56;7.65;;;0.90;;
46941;SDS011;32676;52.630;4.896;2022-09-09T12:02:25;9.75;;;1.38;;
46941;SDS011;32676;52.630;4.896;2022-09-09T12:04:57;5.30;;;1.38;;
46941;SDS011;32676;52.630;4.896;2022-09-09T12:07:34;7.18;;;1.05;;
46941;SDS011;32676;52.630;4.896;2022-09-09T12:10:05;10.98;;;1.00;;
46941;SDS011;32676;52.630;4.896;2022-09-09T12:12:45;5.70;;;0.90;;
46941;SDS011;32676;52.630;4.896;2022-09-09T12:15:22;8.70;;;1.58;;
46941;SDS011;32676;52.630;4.896;2022-09-09T12:17:54;5.90;;;0.50;;
46941;SDS011;32676;52.630;4.896;2022-09-09T12:20:26;5.95;;;0.98;;
46941;SDS011;32676;52.630;4.896;2022-09-09T12:23:05;6.25;;;1.23;;
46941;SDS011;32676;52.630;4.896;2022-09-09T12:25:47;4.53;;;0.80;;
46941;SDS011;32676;52.630;4.896;2022-09-09T12:28:39;6.47;;;1.27;;
46941;SDS011;32676;52.630;4.896;2022-09-09T12:31:17;5.93;;;1.00;;
46941;SDS011;32676;52.630;4.896;2022-09-09T12:33:49;4.67;;;1.23;;
46941;SDS011;32676;52.630;4.896;2022-09-09T12:36:19;5.25;;;1.02;;
46941;SDS011;32676;52.630;4.896;2022-09-09T12:38:48;4.20;;;0.70;;
46941;SDS011;32676;52.630;4.896;2022-09-09T12:41:20;8.27;;;1.10;;
46941;SDS011;32676;52.630;4.896;2022-09-09T12:43:47;3.53;;;0.63;;
46941;SDS011;32676;52.630;4.896;2022-09-09T12:46:20;3.00;;;0.85;;
46941;SDS011;32676;52.630;4.896;2022-09-09T12:48:52;3.60;;;0.80;;
46941;SDS011;32676;52.630;4.896;2022-09-09T12:51:23;6.32;;;2.00;;
46941;SDS011;32676;52.630;4.896;2022-09-09T12:53:54;6.68;;;1.08;;
46941;SDS011;32676;52.630;4.896;2022-09-09T12:56:22;3.38;;;0.75;;
46941;SDS011;32676;52.630;4.896;2022-09-09T12:58:53;3.85;;;1.13;;
46941;SDS011;32676;52.630;4.896;2022-09-09T13:01:21;4.65;;;0.90;;
46941;SDS011;32676;52.630;4.896;2022-09-09T13:03:49;3.42;;;1.10;;
46941;SDS011;32676;52.630;4.896;2022-09-09T13:06:18;5.32;;;1.23;;
46941;SDS011;32676;52.630;4.896;2022-09-09T13:08:48;6.00;;;1.00;;
46941;SDS011;32676;52.630;4.896;2022-09-09T13:11:16;3.10;;;0.70;;
46941;SDS011;32676;52.630;4.896;2022-09-09T13:13:50;4.80;;;0.70;;
46941;SDS011;32676;52.630;4.896;2022-09-09T13:16:19;5.93;;;1.20;;
46941;SDS011;32676;52.630;4.896;2022-09-09T13:18:48;7.10;;;1.17;;
46941;SDS011;32676;52.630;4.896;2022-09-09T13:21:14;3.75;;;0.75;;
46941;SDS011;32676;52.630;4.896;2022-09-09T13:23:47;3.22;;;0.68;;
46941;SDS011;32676;52.630;4.896;2022-09-09T13:26:22;5.93;;;0.60;;
46941;SDS011;32676;52.630;4.896;2022-09-09T13:28:51;3.58;;;0.65;;
46941;SDS011;32676;52.630;4.896;2022-09-09T13:31:19;4.20;;;1.98;;
46941;SDS011;32676;52.630;4.896;2022-09-09T13:33:48;4.00;;;0.80;;
46941;SDS011;32676;52.630;4.896;2022-09-09T13:36:14;7.75;;;1.05;;
46941;SDS011;32676;52.630;4.896;2022-09-09T13:38:53;6.55;;;1.40;;
46941;SDS011;32676;52.630;4.896;2022-09-09T13:41:25;7.60;;;1.13;;
46941;SDS011;32676;52.630;4.896;2022-09-09T13:43:56;6.10;;;1.13;;
46941;SDS011;32676;52.630;4.896;2022-09-09T13:46:25;6.32;;;1.27;;
46941;SDS011;32676;52.630;4.896;2022-09-09T13:48:55;4.72;;;1.05;;
46941;SDS011;32676;52.630;4.896;2022-09-09T13:51:26;5.82;;;1.20;;
46941;SDS011;32676;52.630;4.896;2022-09-09T13:54:00;1.92;;;0.50;;
46941;SDS011;32676;52.630;4.896;2022-09-09T13:56:27;3.75;;;0.90;;
46941;SDS011;32676;52.630;4.896;2022-09-09T13:58:54;2.10;;;0.50;;
46941;SDS011;32676;52.630;4.896;2022-09-09T14:01:20;3.05;;;1.25;;
46941;SDS011;32676;52.630;4.896;2022-09-09T14:03:47;3.95;;;1.58;;
46941;SDS011;32676;52.630;4.896;2022-09-09T14:06:14;6.35;;;1.00;;
46941;SDS011;32676;52.630;4.896;2022-09-09T14:08:41;7.35;;;0.70;;
46941;SDS011;32676;52.630;4.896;2022-09-09T14:11:09;4.20;;;1.15;;
46941;SDS011;32676;52.630;4.896;2022-09-09T14:13:38;7.63;;;0.80;;
46941;SDS011;32676;52.630;4.896;2022-09-09T14:16:05;2.33;;;0.57;;
46941;SDS011;32676;52.630;4.896;2022-09-09T14:18:32;5.53;;;1.83;;
46941;SDS011;32676;52.630;4.896;2022-09-09T14:20:58;2.92;;;0.60;;
46941;SDS011;32676;52.630;4.896;2022-09-09T14:23:25;4.40;;;0.70;;
46941;SDS011;32676;52.630;4.896;2022-09-09T14:25:51;5.97;;;0.47;;
46941;SDS011;32676;52.630;4.896;2022-09-09T14:28:19;3.45;;;0.65;;
46941;SDS011;32676;52.630;4.896;2022-09-09T14:30:46;4.03;;;1.13;;
46941;SDS011;32676;52.630;4.896;2022-09-09T14:33:13;6.30;;;0.98;;
46941;SDS011;32676;52.630;4.896;2022-09-09T14:35:42;5.18;;;0.93;;
46941;SDS011;32676;52.630;4.896;2022-09-09T14:38:09;5.65;;;1.25;;
46941;SDS011;32676;52.630;4.896;2022-09-09T14:40:36;5.28;;;0.73;;
46941;SDS011;32676;52.630;4.896;2022-09-09T14:43:04;7.05;;;0.73;;
46941;SDS011;32676;52.630;4.896;2022-09-09T14:45:32;4.32;;;0.85;;
46941;SDS011;32676;52.630;4.896;2022-09-09T14:48:02;5.57;;;1.42;;
46941;SDS011;32676;52.630;4.896;2022-09-09T14:50:29;4.60;;;0.70;;
46941;SDS011;32676;52.630;4.896;2022-09-09T14:52:56;2.45;;;0.35;;
46941;SDS011;32676;52.630;4.896;2022-09-09T14:55:22;1.58;;;0.35;;
46941;SDS011;32676;52.630;4.896;2022-09-09T14:57:48;3.88;;;0.32;;
46941;SDS011;32676;52.630;4.896;2022-09-09T15:00:15;6.32;;;0.45;;
46941;SDS011;32676;52.630;4.896;2022-09-09T15:02:43;1.35;;;0.30;;
46941;SDS011;32676;52.630;4.896;2022-09-09T15:05:09;1.40;;;0.47;;
46941;SDS011;32676;52.630;4.896;2022-09-09T15:07:36;3.42;;;0.45;;
46941;SDS011;32676;52.630;4.896;2022-09-09T15:10:03;2.40;;;0.50;;
46941;SDS011;32676;52.630;4.896;2022-09-09T15:12:31;5.78;;;0.45;;